Time;durP1;ratioP1;P1;durP2;ratioP2;P2;SDS_P1;SDS_P2;PMS_P1;PMS_P2;Temp;Humidity;BMP_temperature;BMP_pressure;BME280_temperature;BME280_humidity;BME280_pressure;Samples;Min_cycle;Max_cycle;Signal;HPM_P1;HPM_P2
2022/06/02 00:02:04;;;;;;;10.25;5.82;;;;;;;13.64;51.09;101897.00;4977558;28;114339;-68
2022/06/02 00:04:58;;;;;;;8.30;5.68;;;;;;;13.63;51.14;101900.56;4991309;28;114599;-69
2022/06/02 00:07:38;;;;;;;10.35;5.85;;;;;;;13.62;51.12;101904.19;4988641;28;123914;-68
2022/06/02 00:10:17;;;;;;;7.53;5.72;;;;;;;13.61;51.22;101902.44;4979351;28;124573;-68
2022/06/02 00:12:52;;;;;;;7.70;5.78;;;;;;;13.61;51.19;101902.44;4983124;28;114083;-67
2022/06/02 00:15:26;;;;;;;;;;;;;;;13.57;50.73;101906.16;4983335;28;112902;-68
2022/06/02 00:18:11;;;;;;;8.52;5.60;;;;;;;13.56;51.10;101909.72;4980905;28;124297;-68
2022/06/02 00:20:49;;;;;;;7.35;5.18;;;;;;;13.53;51.05;101905.41;4979818;28;124485;-68
2022/06/02 00:23:37;;;;;;;8.35;5.75;;;;;;;13.51;51.02;101906.41;4977637;28;115268;-68
2022/06/02 00:26:31;;;;;;;8.65;6.28;;;;;;;13.46;51.23;101908.38;4980652;28;114491;-68
2022/06/02 00:29:09;;;;;;;7.65;5.80;;;;;;;13.44;51.27;101913.75;4985322;28;123804;-68
2022/06/02 00:31:59;;;;;;;8.68;6.43;;;;;;;13.39;51.32;101908.63;4976054;28;124172;-68
2022/06/02 00:34:43;;;;;;;9.75;6.53;;;;;;;13.34;51.35;101915.94;4980500;28;116149;-68
2022/06/02 00:37:19;;;;;;;9.00;6.25;;;;;;;13.30;51.45;101919.63;4986196;28;115000;-68
2022/06/02 00:39:49;;;;;;;9.27;6.43;;;;;;;13.28;51.35;101915.25;4986187;28;124224;-68
2022/06/02 00:42:54;;;;;;;8.68;6.43;;;;;;;13.26;51.55;101923.31;4980027;28;123709;-68
2022/06/02 00:45:22;;;;;;;9.00;5.97;;;;;;;13.22;51.37;101916.34;4978445;28;114604;-68
2022/06/02 00:48:12;;;;;;;9.32;6.78;;;;;;;13.19;51.62;101925.34;4976872;28;113646;-68
2022/06/02 00:50:53;;;;;;;11.98;6.50;;;;;;;13.17;51.47;101923.66;4970864;28;123267;-68
2022/06/02 00:53:31;;;;;;;8.07;6.07;;;;;;;13.13;51.65;101922.03;4981327;28;124016;-68
2022/06/02 00:59:35;;;;;;;9.60;6.30;;;;;;;13.04;51.61;101929.44;4979180;28;113338;-68
2022/06/02 01:02:03;;;;;;;10.95;6.97;;;;;;;13.01;51.87;101929.56;4974861;28;124603;-68
2022/06/02 01:04:30;;;;;;;9.05;6.60;;;;;;;13.00;51.72;101927.84;4979911;28;123871;-68
2022/06/02 01:07:03;;;;;;;10.35;7.03;;;;;;;12.99;51.64;101926.09;4980858;28;113975;-68
2022/06/02 01:09:58;;;;;;;10.52;7.10;;;;;;;12.95;51.95;101924.47;4978650;28;114362;-68
2022/06/02 01:12:34;;;;;;;11.90;7.55;;;;;;;12.93;51.92;101930.78;4982708;28;123081;-68
2022/06/02 01:15:32;;;;;;;10.80;6.95;;;;;;;12.90;51.95;101931.75;4980631;28;122830;-68
2022/06/02 01:18:12;;;;;;;9.30;6.78;;;;;;;12.87;52.15;101926.56;4987177;28;114129;-67
2022/06/02 01:20:52;;;;;;;9.38;6.68;;;;;;;12.87;52.18;101923.03;4976297;28;114127;-67
2022/06/02 01:23:33;;;;;;;10.02;6.65;;;;;;;12.83;52.15;101919.63;4980177;28;124629;-68
2022/06/02 01:26:37;;;;;;;9.90;6.88;;;;;;;12.81;52.12;101926.81;4980846;28;125013;-68
2022/06/02 01:29:04;;;;;;;10.32;7.38;;;;;;;12.79;52.11;101925.97;4982983;28;115069;-68
2022/06/02 01:31:43;;;;;;;10.80;6.82;;;;;;;12.75;52.10;101927.00;4982625;28;114737;-68
2022/06/02 01:34:29;;;;;;;10.10;6.80;;;;;;;12.70;52.25;101923.66;4978496;28;123791;-68
2022/06/02 01:37:02;;;;;;;9.07;6.93;;;;;;;12.66;52.13;101929.09;4975344;28;125246;-68
2022/06/02 01:40:11;;;;;;;12.02;7.55;;;;;;;12.61;52.18;101928.38;4986531;28;113760;-68
2022/06/02 01:43:00;;;;;;;10.75;7.65;;;;;;;12.55;52.47;101925.94;4993882;28;112606;-68
2022/06/02 01:45:39;;;;;;;9.65;6.82;;;;;;;12.51;52.32;101927.00;4982813;28;123988;-68
2022/06/02 01:48:57;;;;;;;10.55;7.38;;;;;;;12.46;52.33;101932.44;4982870;28;124422;-68
2022/06/02 01:51:30;;;;;;;11.52;7.70;;;;;;;12.41;52.47;101933.53;4992505;28;114244;-68
2022/06/02 01:54:21;;;;;;;10.23;7.70;;;;;;;12.35;52.27;101929.31;5001042;28;113084;-68
2022/06/02 01:57:00;;;;;;;12.07;8.00;;;;;;;12.31;52.42;101916.19;4984851;28;124915;-68
2022/06/02 01:59:44;;;;;;;12.02;7.43;;;;;;;12.27;52.42;101924.25;4981702;28;123499;-68
2022/06/02 02:02:25;;;;;;;10.23;7.35;;;;;;;12.25;52.47;101912.81;4984548;28;114049;-68
2022/06/02 02:05:25;;;;;;;12.55;7.72;;;;;;;12.23;52.45;101925.28;4984212;28;113920;-68
2022/06/02 02:08:01;;;;;;;11.35;7.70;;;;;;;12.21;52.44;101919.16;4979489;28;124968;-68
2022/06/02 02:10:40;;;;;;;11.77;7.88;;;;;;;12.17;52.31;101914.88;4973646;28;124576;-68
2022/06/02 02:13:23;;;;;;;10.60;8.07;;;;;;;12.14;52.50;101914.13;4976727;28;114779;-68
2022/06/02 02:16:28;;;;;;;13.52;8.05;;;;;;;12.11;52.30;101920.41;4977568;28;114207;-68
2022/06/02 02:19:16;;;;;;;14.30;8.53;;;;;;;12.07;52.24;101924.97;4970181;28;125255;-68
2022/06/02 02:22:00;;;;;;;12.43;8.38;;;;;;;12.03;52.63;101923.31;4980739;28;123731;-68
2022/06/02 02:25:04;;;;;;;12.77;8.82;;;;;;;12.00;52.45;101927.88;4967144;28;115425;-68
2022/06/02 02:28:03;;;;;;;13.48;8.73;;;;;;;11.97;52.59;101927.97;4973710;28;114991;-68
2022/06/02 02:30:45;;;;;;;13.32;8.90;;;;;;;11.94;52.44;101925.41;4973688;28;124161;-68
2022/06/02 02:33:51;;;;;;;13.13;8.73;;;;;;;11.91;52.77;101928.19;4996010;28;122949;-68
2022/06/02 02:36:50;;;;;;;15.50;9.53;;;;;;;11.88;52.75;101924.69;4983831;28;114116;-68
2022/06/02 02:39:26;;;;;;;14.50;9.18;;;;;;;11.85;52.71;101924.78;4977050;28;113501;-68
2022/06/02 02:41:57;;;;;;;13.32;9.27;;;;;;;11.84;52.82;101922.16;4972013;28;124527;-68
2022/06/02 02:44:49;;;;;;;11.73;8.50;;;;;;;11.84;53.12;101928.31;4991381;28;123870;-68
2022/06/02 02:47:31;;;;;;;12.93;8.73;;;;;;;11.80;52.76;101932.00;4974731;28;114372;-68
2022/06/02 02:50:19;;;;;;;13.25;8.90;;;;;;;11.78;52.88;101933.84;4976652;28;113955;-68
2022/06/02 02:53:06;;;;;;;11.35;8.02;;;;;;;11.76;52.91;101925.06;4975681;28;123758;-68
2022/06/02 02:56:11;;;;;;;12.38;8.45;;;;;;;11.72;52.98;101928.75;4973663;28;123034;-68
2022/06/02 02:58:49;;;;;;;12.40;8.68;;;;;;;11.71;53.11;101937.63;4973900;28;113668;-68
2022/06/02 03:01:42;;;;;;;13.02;8.77;;;;;;;11.67;53.13;101935.97;4975661;28;114148;-68
2022/06/02 03:04:18;;;;;;;13.60;8.82;;;;;;;11.64;53.02;101942.25;4981282;28;123491;-68
2022/06/02 03:06:47;;;;;;;12.40;8.65;;;;;;;11.62;53.07;101953.81;4980523;28;123454;-67
2022/06/02 03:09:38;;;;;;;14.25;9.52;;;;;;;11.60;53.25;101950.34;4978479;28;114168;-68
2022/06/02 03:12:14;;;;;;;14.13;9.85;;;;;;;11.58;53.12;101952.19;4978649;28;114091;-68
2022/06/02 03:14:58;;;;;;;15.35;10.13;;;;;;;11.56;53.31;101956.69;4976313;28;124442;-68
2022/06/02 03:17:37;;;;;;;15.50;10.10;;;;;;;11.55;53.42;101968.22;4970931;28;123738;-68
2022/06/02 03:20:39;;;;;;;;;;;;;;;11.52;52.97;101966.50;4969143;28;115792;-68
2022/06/02 03:23:37;;;;;;;14.57;9.52;;;;;;;11.50;53.17;101966.56;4973664;28;114782;-68
2022/06/02 03:26:14;;;;;;;16.90;10.73;;;;;;;11.49;53.31;101970.16;4969665;28;122824;-68
2022/06/02 03:28:58;;;;;;;16.63;10.65;;;;;;;11.47;53.46;101966.66;4970776;28;124017;-68
2022/06/02 03:31:53;;;;;;;17.00;11.05;;;;;;;11.47;53.45;101971.97;4973874;28;114115;-68
2022/06/02 03:34:32;;;;;;;21.02;11.98;;;;;;;11.46;53.46;101972.88;4974577;28;114245;-68
2022/06/02 03:37:37;;;;;;;17.70;11.57;;;;;;;11.47;53.56;101976.38;4965923;28;124003;-69
2022/06/02 03:40:07;;;;;;;18.80;11.80;;;;;;;11.47;53.88;101981.69;4975293;28;124527;-69
2022/06/02 03:42:44;;;;;;;18.48;11.75;;;;;;;11.47;53.77;101985.25;4999929;28;114140;-69
2022/06/02 03:45:30;;;;;;;19.60;12.00;;;;;;;11.47;54.00;101990.53;4961477;28;113190;-69
2022/06/02 03:48:21;;;;;;;20.90;12.32;;;;;;;11.47;53.89;101993.19;4971419;28;125091;-69
2022/06/02 03:50:54;;;;;;;20.75;12.82;;;;;;;11.48;54.10;101994.91;4975482;28;123807;-69
2022/06/02 03:53:49;;;;;;;22.98;12.77;;;;;;;11.49;54.26;101998.47;4980527;28;114596;-68
2022/06/02 03:56:44;;;;;;;19.25;12.48;;;;;;;11.52;54.17;102000.16;4982902;28;114119;-68
2022/06/02 03:59:27;;;;;;;23.60;13.15;;;;;;;11.54;54.57;101998.31;4970889;28;124808;-69
2022/06/02 04:02:01;;;;;;;23.50;14.60;;;;;;;11.57;54.33;101998.22;4984412;28;124324;-69
2022/06/02 04:04:46;;;;;;;22.80;13.45;;;;;;;11.59;54.34;102007.00;4971450;28;114713;-69
2022/06/02 04:07:38;;;;;;;23.30;14.27;;;;;;;11.62;54.40;102009.53;4987668;28;113371;-69
2022/06/02 04:10:27;;;;;;;24.42;15.13;;;;;;;11.63;54.80;102003.34;4970338;28;124122;-69
2022/06/02 04:13:37;;;;;;;23.70;14.73;;;;;;;11.66;54.70;101997.94;4971890;28;123273;-68
2022/06/02 04:16:39;;;;;;;25.63;15.10;;;;;;;11.70;54.68;101999.59;4974778;28;114965;-69
2022/06/02 04:22:19;;;;;;;26.45;15.65;;;;;;;11.79;54.67;102009.91;4972942;28;125834;-69
2022/06/02 04:25:22;;;;;;;25.75;16.23;;;;;;;11.85;55.15;102004.41;4985442;28;124929;-68
2022/06/02 04:28:04;;;;;;;25.75;14.88;;;;;;;11.90;54.90;102006.94;4977998;28;114578;-68
2022/06/02 04:30:44;;;;;;;27.55;16.80;;;;;;;11.95;55.15;102012.13;4969912;28;114335;-69
2022/06/02 04:34:02;;;;;;;26.20;17.15;;;;;;;11.98;55.20;102019.97;4969583;28;123877;-68
2022/06/02 04:36:58;;;;;;;26.90;16.00;;;;;;;12.04;55.28;102019.78;4973044;28;124591;-69
2022/06/02 04:39:37;;;;;;;28.05;16.90;;;;;;;12.07;55.36;102023.22;4979781;28;114342;-68
2022/06/02 04:42:23;;;;;;;28.15;17.00;;;;;;;12.13;55.37;102024.81;4977732;28;114674;-69
2022/06/02 04:45:01;;;;;;;28.67;16.88;;;;;;;12.22;55.95;102024.50;4977312;28;123119;-68
2022/06/02 04:47:50;;;;;;;27.95;17.60;;;;;;;12.35;56.28;102029.41;4992810;28;123156;-69
2022/06/02 04:50:41;;;;;;;30.35;18.73;;;;;;;12.51;56.08;102024.41;4981910;28;114056;-69
2022/06/02 04:53:20;;;;;;;26.65;17.40;;;;;;;12.69;56.59;102033.56;4986068;28;114138;-69
2022/06/02 04:55:56;;;;;;;28.20;17.83;;;;;;;12.86;56.53;102031.16;4986900;28;124447;-69
2022/06/02 04:58:32;;;;;;;28.63;17.88;;;;;;;13.00;56.35;102039.53;4980578;28;123690;-69
2022/06/02 05:01:22;;;;;;;29.10;18.13;;;;;;;13.15;56.25;102042.56;4981651;28;114257;-69
2022/06/02 05:04:10;;;;;;;28.63;18.73;;;;;;;13.25;56.13;102046.63;4976413;28;114647;-69
2022/06/02 05:07:02;;;;;;;33.08;20.42;;;;;;;13.34;55.81;102051.63;4977636;28;125223;-69
2022/06/02 05:09:50;;;;;;;31.48;20.92;;;;;;;13.41;55.74;102047.81;4976417;28;124608;-69
2022/06/02 05:12:27;;;;;;;33.63;22.73;;;;;;;13.48;55.50;102039.59;4971045;28;115072;-69
2022/06/02 05:15:19;;;;;;;31.08;20.77;;;;;;;13.51;55.40;102055.47;4974478;28;115161;-69
2022/06/02 05:18:15;;;;;;;32.17;20.23;;;;;;;13.56;55.42;102053.47;4973809;28;123805;-69
2022/06/02 05:21:19;;;;;;;27.90;17.43;;;;;;;13.60;55.40;102049.78;4975298;28;122968;-69
2022/06/02 05:24:49;;;;;;;28.95;18.25;;;;;;;13.63;55.38;102049.66;4979226;28;114694;-69
2022/06/02 05:27:38;;;;;;;27.40;18.48;;;;;;;13.67;55.37;102051.25;4988146;28;113758;-69
2022/06/02 05:30:35;;;;;;;28.30;18.42;;;;;;;13.71;55.59;102054.69;4971682;28;123855;-69
2022/06/02 05:33:13;;;;;;;29.45;18.80;;;;;;;13.74;55.72;102042.13;4967230;28;122893;-68
2022/06/02 05:35:52;;;;;;;30.92;19.15;;;;;;;13.82;55.83;102045.38;4993522;28;113458;-69
2022/06/02 05:38:46;;;;;;;31.73;19.30;;;;;;;13.90;55.74;102052.16;4990424;28;112997;-69
2022/06/02 05:41:41;;;;;;;31.73;19.85;;;;;;;13.98;55.81;102060.72;4973545;28;124454;-68
2022/06/02 05:44:16;;;;;;;31.20;19.58;;;;;;;14.07;56.00;102065.69;4970492;28;124420;-69
2022/06/02 05:47:12;;;;;;;28.92;18.80;;;;;;;14.13;56.15;102065.44;4985075;28;114312;-68
2022/06/02 05:50:01;;;;;;;27.80;17.97;;;;;;;14.23;56.09;102065.06;4970200;28;114048;-69
2022/06/02 05:52:59;;;;;;;27.85;17.88;;;;;;;14.34;55.94;102062.84;4974336;28;124716;-68
2022/06/02 05:55:51;;;;;;;26.40;17.40;;;;;;;14.44;55.92;102064.16;4975237;28;124556;-69
2022/06/02 05:58:24;;;;;;;29.77;18.17;;;;;;;14.49;55.78;102067.53;4972737;28;114177;-68
2022/06/02 06:01:42;;;;;;;26.35;17.42;;;;;;;14.59;56.04;102073.34;4977442;28;113965;-68
2022/06/02 06:04:22;;;;;;;27.00;16.98;;;;;;;14.70;55.94;102080.91;4970548;28;124075;-69
2022/06/02 06:06:55;;;;;;;27.58;17.88;;;;;;;14.82;55.91;102074.19;4973140;28;123208;-69
2022/06/02 06:09:51;;;;;;;27.27;17.67;;;;;;;14.95;56.05;102076.22;4971652;28;114368;-69
2022/06/02 06:12:41;;;;;;;26.33;17.33;;;;;;;15.10;55.90;102068.50;4970638;28;114688;-69
2022/06/02 06:15:26;;;;;;;27.75;17.77;;;;;;;15.23;55.80;102064.34;4975893;28;124176;-69
2022/06/02 06:18:38;;;;;;;25.40;16.93;;;;;;;15.34;55.73;102072.75;4972441;28;124229;-69
2022/06/02 06:21:26;;;;;;;25.10;17.02;;;;;;;15.49;55.90;102075.66;4971659;28;114284;-69
2022/06/02 06:24:31;;;;;;;27.30;17.20;;;;;;;15.66;56.00;102078.41;4973366;28;114354;-69
2022/06/02 06:27:33;;;;;;;26.08;16.88;;;;;;;15.84;55.85;102079.38;4971583;28;124153;-69
2022/06/02 06:30:16;;;;;;;25.38;17.10;;;;;;;16.01;55.82;102077.69;4972615;28;124038;-69
2022/06/02 06:32:58;;;;;;;27.40;16.73;;;;;;;16.18;56.00;102079.56;4971069;28;113692;-69
2022/06/02 06:36:07;;;;;;;24.67;16.33;;;;;;;16.37;55.81;102080.41;4971784;28;114079;-69
2022/06/02 06:39:04;;;;;;;25.40;17.42;;;;;;;16.58;55.44;102082.94;4987026;28;124232;-69
2022/06/02 06:42:05;;;;;;;25.73;17.23;;;;;;;16.76;55.41;102092.69;4972255;28;124563;-69
2022/06/02 06:44:54;;;;;;;21.25;15.05;;;;;;;16.93;55.28;102090.06;4983586;28;114071;-69
2022/06/02 06:47:42;;;;;;;20.48;13.75;;;;;;;17.11;55.24;102098.06;4980531;28;114643;-69
2022/06/02 06:50:29;;;;;;;19.52;13.13;;;;;;;17.27;55.13;102088.28;4972837;28;123835;-69
2022/06/02 06:53:05;;;;;;;18.48;13.57;;;;;;;17.47;54.79;102105.09;4973421;28;122688;-69
2022/06/02 06:56:10;;;;;;;21.05;14.00;;;;;;;17.65;54.67;102096.06;4995743;28;114232;-69
2022/06/02 06:59:16;;;;;;;18.05;13.23;;;;;;;17.87;54.51;102110.97;4977844;28;114131;-69
2022/06/02 07:01:57;;;;;;;17.65;13.00;;;;;;;18.04;54.41;102108.19;4980791;28;124070;-69
2022/06/02 07:04:28;;;;;;;17.65;12.63;;;;;;;18.21;54.38;102106.38;4976973;28;123497;-69
2022/06/02 07:07:06;;;;;;;15.57;11.32;;;;;;;18.38;54.06;102103.59;4979463;28;115464;-70
2022/06/02 07:09:40;;;;;;;17.95;11.02;;;;;;;18.55;54.14;102112.47;4980753;28;115137;-69
2022/06/02 07:15:08;;;;;;;16.75;11.23;;;;;;;18.85;53.25;102118.78;4975404;28;124561;-69
2022/06/02 07:17:49;;;;;;;12.70;9.85;;;;;;;19.01;53.02;102128.59;4975251;28;113616;-69
2022/06/02 07:20:50;;;;;;;12.75;8.90;;;;;;;19.18;52.85;102125.72;4967839;28;114309;-69
2022/06/02 07:23:33;;;;;;;13.73;9.85;;;;;;;19.25;52.45;102132.47;4983024;28;123506;-69
2022/06/02 07:26:13;;;;;;;11.88;8.77;;;;;;;19.29;52.10;102138.53;4982265;28;123664;-69
2022/06/02 07:29:03;;;;;;;11.73;9.32;;;;;;;19.32;51.46;102137.44;4975880;28;115628;-69
2022/06/02 07:31:38;;;;;;;10.45;8.30;;;;;;;19.33;51.63;102128.44;4978994;28;113775;-69
2022/06/02 07:34:17;;;;;;;11.85;9.07;;;;;;;19.31;50.92;102130.34;4974299;28;124467;-69
2022/06/02 07:37:05;;;;;;;13.07;8.77;;;;;;;19.24;50.17;102136.09;4982573;28;123368;-69
2022/06/02 07:39:35;;;;;;;11.75;8.10;;;;;;;19.16;50.48;102143.78;4972616;28;114165;-69
2022/06/02 07:42:35;;;;;;;10.95;8.35;;;;;;;19.12;50.48;102146.72;4990238;28;112941;-69
2022/06/02 07:45:17;;;;;;;10.52;8.15;;;;;;;19.20;50.84;102139.94;4968845;28;123686;-69
2022/06/02 07:48:06;;;;;;;10.18;7.55;;;;;;;19.35;50.69;102137.28;4973951;28;123935;-68
2022/06/02 07:50:36;;;;;;;11.13;8.05;;;;;;;19.55;51.15;102134.22;4984594;28;114307;-68
2022/06/02 07:53:15;;;;;;;6.53;5.00;;;;;;;19.77;51.13;102132.88;4981384;28;115001;-68
2022/06/02 07:56:38;;;;;;;8.55;5.68;;;;;;;19.99;50.01;102133.25;4978676;28;124053;-68
2022/06/02 07:59:18;;;;;;;7.63;6.13;;;;;;;20.14;49.29;102130.53;4946282;28;124119;-68
2022/06/02 08:02:21;;;;;;;7.75;5.75;;;;;;;20.26;49.48;102129.72;5003227;28;114721;-68
2022/06/02 08:05:31;;;;;;;7.03;6.03;;;;;;;20.45;48.98;102129.38;4974060;28;115348;-68
2022/06/02 08:08:04;;;;;;;10.32;7.10;;;;;;;20.60;48.15;102130.22;4974743;28;123291;-68
2022/06/02 08:10:52;;;;;;;8.70;7.20;;;;;;;20.63;47.05;102138.09;4969310;28;124590;-68
2022/06/02 08:13:28;;;;;;;9.93;6.60;;;;;;;20.56;46.80;102137.59;4968714;28;114455;-69
2022/06/02 08:16:06;;;;;;;8.05;6.68;;;;;;;20.55;46.62;102135.00;4972202;28;114745;-68
2022/06/02 08:19:03;;;;;;;8.32;6.93;;;;;;;20.60;47.32;102132.91;4969612;28;124511;-70
2022/06/02 08:21:41;;;;;;;9.27;6.80;;;;;;;20.71;47.13;102124.97;4968846;28;124617;-68
2022/06/02 08:24:34;;;;;;;8.57;6.88;;;;;;;20.83;46.87;102133.19;4968710;28;112809;-69
2022/06/02 08:27:15;;;;;;;8.77;7.28;;;;;;;20.89;46.46;102143.53;4968950;28;113423;-69
2022/06/02 08:29:55;;;;;;;9.90;6.50;;;;;;;20.93;46.49;102135.16;4972067;28;123031;-68
2022/06/02 08:32:33;;;;;;;8.07;6.65;;;;;;;21.06;46.77;102140.56;4974306;28;124254;-70
2022/06/02 08:35:30;;;;;;;7.55;5.90;;;;;;;21.23;46.62;102146.59;4974454;28;114200;-69
2022/06/02 08:38:26;;;;;;;9.35;6.68;;;;;;;21.35;45.14;102145.75;4970505;28;113339;-70
2022/06/02 08:40:53;;;;;;;;;;;;;;;21.27;45.89;102149.00;4974077;28;124373;-69
2022/06/02 08:43:50;;;;;;;7.65;5.95;;;;;;;21.29;45.24;102140.81;4975952;28;124851;-68
2022/06/02 08:47:00;;;;;;;7.68;5.80;;;;;;;21.32;45.44;102145.97;4973163;28;114522;-68
2022/06/02 08:49:55;;;;;;;7.20;5.28;;;;;;;21.34;44.32;102144.00;4974125;28;113411;-68
2022/06/02 08:52:51;;;;;;;5.50;4.80;;;;;;;21.31;43.90;102144.25;4973458;28;124490;-68
2022/06/02 08:55:31;;;;;;;5.57;4.30;;;;;;;21.36;44.45;102136.69;4974039;28;124022;-68
2022/06/02 08:58:43;;;;;;;5.47;4.43;;;;;;;21.48;44.13;102141.25;4979084;28;115276;-68
2022/06/02 09:01:32;;;;;;;7.27;6.13;;;;;;;21.53;43.88;102144.50;4973137;28;116249;-68
2022/06/02 09:04:25;;;;;;;8.35;5.72;;;;;;;21.58;43.93;102153.09;4983181;28;122408;-69
2022/06/02 09:07:14;;;;;;;6.72;5.90;;;;;;;21.67;43.47;102148.03;4996284;28;121822;-68
2022/06/02 09:10:13;;;;;;;7.45;5.90;;;;;;;21.77;43.65;102146.41;4972904;28;114792;-69
2022/06/02 09:13:04;;;;;;;7.13;6.03;;;;;;;21.84;43.25;102147.69;4976879;28;114304;-69
2022/06/02 09:15:46;;;;;;;7.30;5.72;;;;;;;21.89;43.41;102140.13;4971182;28;124039;-68
2022/06/02 09:18:38;;;;;;;7.97;5.32;;;;;;;22.00;43.71;102142.06;4973123;28;123813;-68
2022/06/02 09:21:33;;;;;;;5.70;4.80;;;;;;;22.20;42.85;102137.88;4970499;28;114406;-68
2022/06/02 09:24:29;;;;;;;5.45;4.30;;;;;;;22.27;42.47;102144.59;4966712;28;113978;-69
2022/06/02 09:27:44;;;;;;;7.22;5.20;;;;;;;22.33;42.83;102145.97;4969786;28;124704;-69
2022/06/02 09:30:19;;;;;;;6.15;5.28;;;;;;;22.42;42.64;102141.72;4954021;28;122739;-68
2022/06/02 09:33:37;;;;;;;5.93;4.75;;;;;;;22.49;42.52;102142.97;4982658;28;114830;-68
2022/06/02 09:36:49;;;;;;;7.10;4.95;;;;;;;22.56;42.52;102141.53;4978333;28;112894;-68
2022/06/02 09:39:28;;;;;;;6.82;5.72;;;;;;;22.67;41.74;102147.00;4983793;28;123835;-69
2022/06/02 09:42:02;;;;;;;5.63;5.03;;;;;;;22.68;41.38;102142.47;4978082;28;123975;-69
2022/06/02 09:44:52;;;;;;;6.30;5.13;;;;;;;22.71;42.06;102143.06;4982911;28;114275;-69
2022/06/02 09:47:56;;;;;;;7.13;5.35;;;;;;;22.84;42.11;102144.84;4972717;28;113284;-69
2022/06/02 09:50:38;;;;;;;6.85;5.28;;;;;;;22.94;41.79;102138.63;4987898;28;124200;-68
2022/06/02 09:53:21;;;;;;;7.97;5.85;;;;;;;23.04;41.47;102146.91;4986523;28;124804;-69
2022/06/02 09:56:16;;;;;;;6.63;5.53;;;;;;;23.09;40.42;102144.72;4979734;28;115048;-69
2022/06/02 09:58:54;;;;;;;6.78;5.72;;;;;;;23.02;40.30;102139.84;4984073;28;115072;-70
2022/06/02 10:01:40;;;;;;;9.02;5.63;;;;;;;22.98;40.25;102141.97;4987508;28;124915;-70
2022/06/02 10:04:37;;;;;;;6.65;5.43;;;;;;;23.00;40.81;102141.81;5003577;28;123884;-70
2022/06/02 10:07:46;;;;;;;6.65;5.45;;;;;;;23.05;41.08;102136.97;4973608;28;113448;-70
2022/06/02 10:10:26;;;;;;;6.53;5.10;;;;;;;23.15;40.72;102134.41;4980975;28;112850;-70
2022/06/02 10:13:21;;;;;;;6.70;5.47;;;;;;;23.17;40.36;102138.72;4990366;28;124281;-69
2022/06/02 10:16:09;;;;;;;6.80;5.47;;;;;;;23.18;40.47;102134.16;4979448;28;123995;-71
2022/06/02 10:19:07;;;;;;;6.38;5.20;;;;;;;23.21;40.85;102134.78;4989002;28;115118;-70
2022/06/02 10:21:52;;;;;;;7.00;5.55;;;;;;;23.28;40.09;102129.75;4970466;28;114593;-70
2022/06/02 10:24:57;;;;;;;6.75;5.93;;;;;;;23.26;39.94;102132.59;4968734;28;124195;-70
2022/06/02 10:27:40;;;;;;;7.05;5.25;;;;;;;23.28;40.05;102132.44;4970254;28;122931;-69
2022/06/02 10:30:44;;;;;;;6.72;5.25;;;;;;;23.39;40.87;102137.88;4982591;28;114344;-70
2022/06/02 10:33:42;;;;;;;6.63;5.43;;;;;;;23.54;40.53;102141.22;4991323;28;114183;-69
2022/06/02 10:36:31;;;;;;;7.03;5.70;;;;;;;23.54;40.18;102135.78;4986866;28;123948;-69
2022/06/02 10:39:31;;;;;;;5.78;5.10;;;;;;;23.48;40.09;102137.16;4973560;28;124400;-69
2022/06/02 10:42:34;;;;;;;6.43;5.40;;;;;;;23.43;39.72;102136.69;4988668;28;114411;-69
2022/06/02 10:45:32;;;;;;;6.85;5.40;;;;;;;23.34;39.86;102129.28;4975256;28;115554;-70
2022/06/02 10:48:18;;;;;;;6.95;5.65;;;;;;;23.37;39.48;102129.03;4988848;28;123877;-69
2022/06/02 10:50:48;;;;;;;6.50;5.00;;;;;;;23.43;39.71;102123.16;4984807;28;124095;-70
2022/06/02 10:53:46;;;;;;;6.32;5.00;;;;;;;23.55;39.61;102120.44;4989914;28;116269;-69
2022/06/02 10:56:40;;;;;;;6.40;5.10;;;;;;;23.68;39.74;102115.78;4976529;28;114581;-70
2022/06/02 10:59:22;;;;;;;6.60;5.60;;;;;;;23.79;39.80;102107.69;4970639;28;124083;-70
2022/06/02 11:02:19;;;;;;;6.95;5.10;;;;;;;23.89;39.48;102119.47;4973859;28;123154;-69
2022/06/02 11:05:23;;;;;;;7.05;6.20;;;;;;;23.94;39.63;102104.69;4971727;28;113992;-69
2022/06/02 11:08:45;;;;;;;7.28;5.95;;;;;;;24.02;38.95;102099.53;4967932;28;113589;-70
2022/06/02 11:11:24;;;;;;;6.00;5.38;;;;;;;24.10;39.18;102102.44;4952486;28;123422;-70
2022/06/02 11:14:13;;;;;;;3.03;2.72;;;;;;;24.23;39.31;102095.03;4971812;28;123835;-70
2022/06/02 11:16:52;;;;;;;4.43;3.00;;;;;;;24.39;37.88;102099.16;4977747;28;113414;-70
2022/06/02 11:19:54;;;;;;;4.10;3.50;;;;;;;24.46;37.85;102089.53;4991942;28;113701;-69
2022/06/02 11:22:56;;;;;;;4.70;2.80;;;;;;;24.52;37.59;102089.03;4971921;28;124857;-70
2022/06/02 11:26:13;;;;;;;5.03;3.05;;;;;;;24.54;37.77;102091.63;4969713;28;123359;-69
2022/06/02 11:28:59;;;;;;;3.78;2.20;;;;;;;24.58;36.96;102083.13;4971667;28;114418;-70
2022/06/02 11:32:05;;;;;;;2.63;2.17;;;;;;;24.59;36.45;102083.97;4971347;28;113718;-70
2022/06/02 11:34:49;;;;;;;3.80;2.38;;;;;;;24.57;36.16;102075.97;4960747;28;124570;-69
2022/06/02 11:37:39;;;;;;;3.22;2.28;;;;;;;24.57;35.87;102086.81;4968052;28;123881;-70
2022/06/02 11:40:33;;;;;;;3.13;2.40;;;;;;;24.58;35.79;102083.13;4974423;28;114191;-70
2022/06/02 11:43:26;;;;;;;3.30;2.83;;;;;;;24.60;35.58;102091.97;4978888;28;113886;-70
2022/06/02 11:46:13;;;;;;;3.20;2.63;;;;;;;24.62;36.02;102090.00;4992335;28;124465;-71
2022/06/02 11:49:08;;;;;;;3.42;2.75;;;;;;;24.63;36.45;102080.84;4981468;28;124086;-70
2022/06/02 11:51:44;;;;;;;2.90;2.47;;;;;;;24.76;36.34;102086.09;4974224;28;115676;-71
2022/06/02 11:54:21;;;;;;;3.30;2.20;;;;;;;24.91;36.01;102091.19;4976188;28;114863;-71
2022/06/02 11:57:26;;;;;;;3.03;2.60;;;;;;;24.93;34.76;102081.94;4984488;28;124578;-71
2022/06/02 12:00:07;;;;;;;4.57;2.85;;;;;;;24.76;34.84;102077.13;4979666;28;123799;-71
2022/06/02 12:02:37;;;;;;;3.30;2.60;;;;;;;24.66;34.98;102075.19;4987519;28;114908;-70
2022/06/02 12:05:28;;;;;;;4.35;2.90;;;;;;;24.57;35.31;102080.53;5000606;28;114241;-70
2022/06/02 12:08:23;;;;;;;3.00;2.55;;;;;;;24.55;34.95;102074.41;4971911;28;123561;-70
2022/06/02 12:11:09;;;;;;;3.58;2.55;;;;;;;24.58;35.78;102066.88;4984064;28;123793;-70
2022/06/02 12:13:56;;;;;;;3.33;2.53;;;;;;;24.66;34.54;102064.34;4990673;28;115323;-71
2022/06/02 12:16:37;;;;;;;3.08;2.58;;;;;;;24.63;34.34;102061.91;4991268;28;113126;-70
2022/06/02 12:19:13;;;;;;;2.60;2.10;;;;;;;24.61;34.51;102065.75;4979651;28;124795;-70
2022/06/02 12:22:00;;;;;;;2.63;2.00;;;;;;;24.63;34.45;102059.19;4990512;28;124008;-71
2022/06/02 12:24:51;;;;;;;3.50;2.83;;;;;;;24.67;33.77;102055.22;4988357;28;114376;-71
2022/06/02 12:27:46;;;;;;;2.80;2.20;;;;;;;24.67;34.63;102055.22;4981152;28;114367;-70
2022/06/02 12:30:31;;;;;;;3.33;2.40;;;;;;;24.79;34.99;102049.72;4989806;28;122954;-70
2022/06/02 12:33:20;;;;;;;3.33;2.30;;;;;;;24.93;35.67;102057.53;4976183;28;125262;-71
2022/06/02 12:36:21;;;;;;;3.10;2.50;;;;;;;25.06;34.45;102049.19;4983482;28;114260;-71
2022/06/02 12:39:07;;;;;;;4.28;2.92;;;;;;;25.12;34.46;102048.66;4957624;28;113389;-70
2022/06/02 12:41:56;;;;;;;4.35;2.60;;;;;;;25.15;34.08;102052.97;4971518;28;123812;-71
2022/06/02 12:44:44;;;;;;;2.90;2.35;;;;;;;25.16;34.17;102049.25;4971867;28;124551;-71
2022/06/02 12:47:46;;;;;;;3.10;2.47;;;;;;;25.22;34.30;102043.25;4973434;28;114218;-71
2022/06/02 12:50:27;;;;;;;3.65;2.80;;;;;;;25.31;33.75;102037.06;4970901;28;115535;-71
2022/06/02 12:53:06;;;;;;;3.75;2.25;;;;;;;25.40;33.54;102041.66;4977991;28;124668;-71
2022/06/02 12:55:38;;;;;;;3.08;2.50;;;;;;;25.43;32.39;102033.25;4980945;28;123992;-70
2022/06/02 12:58:34;;;;;;;4.60;2.45;;;;;;;25.39;32.11;102029.13;4973202;28;113164;-73